< < Back
Terminal Aerodrome Forecast


Current Version              Previous Versions:   1  2  3  4  5  6  7  8  9  

Terminal Aerodrome Forecast

694
FTUS42 KGSP 281735
TAFAND
TAF
KAND 281735Z 2818/2918 28009KT P6SM SKC
     FM282300 35004KT P6SM SKC
     FM291400 13004KT P6SM SKC=

Latest METAR

462
SAUS70 KWBC 282200 RRB
MTRAND
METAR KAND 282156Z AUTO 27014KT 10SM CLR 13/M11 A3006 RMK AO2 SLP178
T01281111


USA.gov is the U.S. government's official web portal to all federal, state and local government web resources and services.